Time;durP1;ratioP1;P1;durP2;ratioP2;P2;SDS_P1;SDS_P2;PMS_P1;PMS_P2;Temp;Humidity;BMP_temperature;BMP_pressure;BME280_temperature;BME280_humidity;BME280_pressure;Samples;Min_cycle;Max_cycle;Signal;HPM_P1;HPM_P2
2022/04/24 00:02:06;;;;;;;4.03;3.57;;;7.00;99.90;;;;;;5044696;28;20465;-52
2022/04/24 00:04:32;;;;;;;5.77;3.80;;;6.90;99.90;;;;;;5045691;28;20490;-53
2022/04/24 00:06:59;;;;;;;3.87;3.50;;;6.90;99.90;;;;;;5040012;28;20541;-52
2022/04/24 00:09:27;;;;;;;5.30;4.10;;;6.80;99.90;;;;;;5043662;28;20559;-52
2022/04/24 00:11:55;;;;;;;9.57;4.43;;;6.80;99.90;;;;;;5042208;28;20466;-53
2022/04/24 00:14:22;;;;;;;5.87;3.67;;;6.90;99.90;;;;;;5043736;28;21008;-53
2022/04/24 00:16:48;;;;;;;3.67;3.43;;;6.80;99.90;;;;;;5043540;28;21021;-53
2022/04/24 00:19:18;;;;;;;14.33;4.03;;;6.80;99.90;;;;;;5045202;28;20576;-53
2022/04/24 00:21:45;;;;;;;3.67;3.47;;;6.70;99.90;;;;;;5043801;28;20843;-53
2022/04/24 00:24:12;;;;;;;4.83;4.17;;;6.70;99.90;;;;;;5044112;28;20541;-52
2022/04/24 00:26:40;;;;;;;6.00;3.73;;;6.70;99.90;;;;;;5040258;28;20620;-52
2022/04/24 00:29:07;;;;;;;4.97;3.60;;;6.60;99.90;;;;;;5043962;28;20545;-51
2022/04/24 00:31:33;;;;;;;6.10;3.70;;;6.60;99.90;;;;;;5042850;28;20550;-52
2022/04/24 00:34:00;;;;;;;4.60;4.20;;;6.60;99.90;;;;;;5044945;28;20498;-52
2022/04/24 00:36:27;;;;;;;3.73;3.50;;;6.50;99.90;;;;;;5041559;28;20899;-52
2022/04/24 00:38:53;;;;;;;4.10;3.53;;;6.50;99.90;;;;;;5043382;28;20556;-52
2022/04/24 00:41:20;;;;;;;3.53;3.23;;;6.40;99.90;;;;;;5043835;28;21098;-52
2022/04/24 00:43:53;;;;;;;4.17;3.67;;;6.40;99.90;;;;;;5039973;28;21057;-52
2022/04/24 00:46:28;;;;;;;3.80;3.50;;;6.30;99.90;;;;;;5041958;28;20466;-51
2022/04/24 00:48:54;;;;;;;5.37;4.20;;;6.30;99.90;;;;;;5040786;28;20583;-53
2022/04/24 00:51:21;;;;;;;8.37;4.13;;;6.30;99.90;;;;;;5043835;28;20928;-53
2022/04/24 00:53:48;;;;;;;5.70;3.77;;;6.30;99.90;;;;;;5041873;28;20545;-52
2022/04/24 00:56:14;;;;;;;4.23;3.80;;;6.30;99.90;;;;;;5041621;28;20518;-52
2022/04/24 00:58:41;;;;;;;4.53;3.63;;;6.20;99.90;;;;;;5043339;28;20993;-52
2022/04/24 01:01:10;;;;;;;7.90;4.80;;;6.10;99.90;;;;;;5038428;28;20592;-51
2022/04/24 01:03:38;;;;;;;7.27;4.10;;;6.10;99.90;;;;;;5043551;28;22078;-51
2022/04/24 01:06:05;;;;;;;4.93;3.50;;;6.10;99.90;;;;;;5045929;28;22229;-51
2022/04/24 01:08:35;;;;;;;4.50;3.80;;;6.10;99.90;;;;;;5046124;28;21055;-52
2022/04/24 01:11:01;;;;;;;5.90;3.17;;;6.10;99.90;;;;;;5045112;28;20581;-52
2022/04/24 01:13:28;;;;;;;5.90;3.90;;;6.10;99.90;;;;;;5047028;28;20541;-52
2022/04/24 01:15:57;;;;;;;3.60;3.40;;;6.00;99.90;;;;;;5046350;28;20601;-53
2022/04/24 01:18:26;;;;;;;4.70;3.93;;;6.00;99.90;;;;;;5045733;28;20513;-53
2022/04/24 01:20:54;;;;;;;5.20;3.77;;;6.00;99.90;;;;;;5044226;28;21287;-53
2022/04/24 01:23:21;;;;;;;4.37;3.80;;;6.00;99.90;;;;;;5045722;28;20548;-52
2022/04/24 01:25:47;;;;;;;4.83;4.10;;;5.90;99.90;;;;;;5045927;28;20561;-52
2022/04/24 01:28:14;;;;;;;7.43;3.73;;;5.90;99.90;;;;;;5050299;28;20507;-52
2022/04/24 01:30:40;;;;;;;4.33;3.93;;;5.90;99.90;;;;;;5044556;28;20595;-52
2022/04/24 01:33:07;;;;;;;6.17;4.53;;;5.90;99.90;;;;;;5047565;28;20540;-52
2022/04/24 01:35:33;;;;;;;5.83;3.97;;;5.80;99.90;;;;;;5043699;28;20568;-53
2022/04/24 01:38:01;;;;;;;4.53;3.53;;;5.80;99.90;;;;;;5045439;28;20561;-53
2022/04/24 01:40:28;;;;;;;7.30;3.93;;;5.80;99.90;;;;;;5047700;28;20950;-53
2022/04/24 01:42:58;;;;;;;7.73;4.10;;;5.80;99.90;;;;;;5044906;28;21141;-53
2022/04/24 01:45:24;;;;;;;4.47;4.00;;;5.80;99.90;;;;;;5046671;28;20486;-53
2022/04/24 01:47:51;;;;;;;5.80;4.20;;;5.80;99.90;;;;;;5048666;28;20484;-53
2022/04/24 01:50:17;;;;;;;5.03;4.13;;;5.70;99.90;;;;;;5051190;28;20560;-54
2022/04/24 01:52:44;;;;;;;5.30;3.90;;;5.70;99.90;;;;;;5050489;28;20537;-53
2022/04/24 01:55:12;;;;;;;7.00;4.10;;;5.70;99.90;;;;;;5050979;28;20568;-53
2022/04/24 01:57:38;;;;;;;7.73;4.40;;;5.70;99.90;;;;;;5047371;28;20592;-53
2022/04/24 02:00:06;;;;;;;4.53;4.13;;;5.70;99.90;;;;;;5047342;28;20573;-54
2022/04/24 02:02:32;;;;;;;8.73;3.90;;;5.70;99.90;;;;;;5045129;28;20544;-53
2022/04/24 02:04:59;;;;;;;5.50;4.53;;;5.60;99.90;;;;;;5045686;28;20553;-54
2022/04/24 02:07:25;;;;;;;6.07;4.10;;;5.60;99.90;;;;;;5047121;28;20521;-52
2022/04/24 02:09:52;;;;;;;5.10;4.40;;;5.50;99.90;;;;;;5045311;28;20580;-53
2022/04/24 02:12:20;;;;;;;5.10;3.90;;;5.50;99.90;;;;;;5044122;28;20619;-53
2022/04/24 02:14:46;;;;;;;7.03;4.63;;;5.50;99.90;;;;;;5044436;28;21035;-53
2022/04/24 02:17:13;;;;;;;8.40;3.97;;;5.50;99.90;;;;;;5044288;28;20544;-53
2022/04/24 02:19:40;;;;;;;4.97;3.87;;;5.50;99.90;;;;;;5042894;28;20569;-54
2022/04/24 02:22:07;;;;;;;4.03;3.73;;;5.50;99.90;;;;;;5043876;28;20540;-53
2022/04/24 02:24:33;;;;;;;5.50;4.67;;;5.40;99.90;;;;;;5046171;28;20561;-53
2022/04/24 02:27:00;;;;;;;8.23;4.80;;;5.50;99.90;;;;;;5044999;28;20457;-53
2022/04/24 02:29:28;;;;;;;5.00;4.00;;;5.40;99.90;;;;;;5046242;28;20481;-53
2022/04/24 02:31:55;;;;;;;5.57;3.90;;;5.40;99.90;;;;;;5042845;28;20467;-54
2022/04/24 02:34:21;;;;;;;4.43;4.03;;;5.40;99.90;;;;;;5044605;28;20544;-53
2022/04/24 02:36:48;;;;;;;5.50;4.27;;;5.30;99.90;;;;;;5046903;28;20909;-53
2022/04/24 02:39:14;;;;;;;6.70;4.97;;;5.30;99.90;;;;;;5054266;28;20561;-53
2022/04/24 02:41:41;;;;;;;5.70;4.63;;;5.20;99.90;;;;;;5058105;28;20558;-53
2022/04/24 02:44:07;;;;;;;4.30;3.90;;;5.20;99.90;;;;;;5044715;28;20579;-53
2022/04/24 02:46:35;;;;;;;5.87;3.80;;;5.30;99.90;;;;;;5045667;28;20554;-54
2022/04/24 02:49:02;;;;;;;5.10;3.93;;;5.30;99.90;;;;;;5043551;28;21016;-53
2022/04/24 02:51:28;;;;;;;7.30;3.70;;;5.20;99.90;;;;;;5045098;28;20494;-53
2022/04/24 02:53:55;;;;;;;11.23;4.80;;;5.20;99.90;;;;;;5044750;28;20558;-53
2022/04/24 02:56:21;;;;;;;8.90;4.17;;;5.30;99.90;;;;;;5045976;28;20569;-53
2022/04/24 02:58:49;;;;;;;7.37;4.23;;;5.20;99.90;;;;;;5044609;28;20570;-52
2022/04/24 03:01:15;;;;;;;5.10;3.90;;;5.20;99.90;;;;;;5044275;28;20972;-54
2022/04/24 03:03:45;;;;;;;7.23;4.53;;;5.20;99.90;;;;;;5047445;28;20500;-54
2022/04/24 03:06:12;;;;;;;6.80;4.30;;;5.20;99.90;;;;;;5047617;28;20469;-53
2022/04/24 03:08:39;;;;;;;4.57;3.93;;;5.20;99.90;;;;;;5046797;28;20992;-53
2022/04/24 03:11:06;;;;;;;5.10;4.47;;;5.20;99.90;;;;;;5047851;28;20572;-53
2022/04/24 03:13:32;;;;;;;5.13;4.60;;;5.20;99.90;;;;;;5046011;28;20565;-53
2022/04/24 03:15:59;;;;;;;6.30;4.43;;;5.20;99.90;;;;;;5043956;28;22425;-53
2022/04/24 03:18:26;;;;;;;8.10;4.87;;;5.20;99.90;;;;;;5047744;28;20549;-53
2022/04/24 03:20:54;;;;;;;9.30;4.37;;;5.10;99.90;;;;;;5046432;28;20496;-53
2022/04/24 03:23:21;;;;;;;10.93;4.90;;;5.10;99.90;;;;;;5045543;28;20899;-55
2022/04/24 03:25:47;;;;;;;8.50;5.20;;;5.10;99.90;;;;;;5044962;28;20532;-53
2022/04/24 03:28:14;;;;;;;8.03;4.30;;;5.00;99.90;;;;;;5045772;28;20535;-54
2022/04/24 03:30:40;;;;;;;7.03;4.50;;;5.10;99.90;;;;;;5044770;28;20561;-53
2022/04/24 03:33:07;;;;;;;9.20;4.67;;;5.00;99.90;;;;;;5044981;28;20549;-53
2022/04/24 03:35:33;;;;;;;8.07;4.90;;;5.00;99.90;;;;;;5047127;28;20509;-53
2022/04/24 03:38:01;;;;;;;6.90;4.23;;;4.90;99.90;;;;;;5053278;28;20488;-53
2022/04/24 03:40:28;;;;;;;4.80;3.93;;;4.90;99.90;;;;;;5054181;28;20568;-54
2022/04/24 03:42:55;;;;;;;9.40;4.40;;;4.90;99.90;;;;;;5052320;28;20509;-53
2022/04/24 03:45:21;;;;;;;7.37;4.47;;;4.90;99.90;;;;;;5049386;28;20459;-53
2022/04/24 03:47:48;;;;;;;8.00;4.57;;;4.90;99.90;;;;;;5046318;28;20462;-54
2022/04/24 03:50:15;;;;;;;6.30;4.77;;;4.90;99.90;;;;;;5044314;28;20493;-54
2022/04/24 03:52:42;;;;;;;5.50;4.50;;;4.90;99.90;;;;;;5045543;28;20494;-53
2022/04/24 03:55:10;;;;;;;7.40;4.60;;;4.90;99.90;;;;;;5043977;28;20548;-53
2022/04/24 03:57:37;;;;;;;4.60;4.20;;;4.90;99.90;;;;;;5044816;28;20568;-53
2022/04/24 04:00:05;;;;;;;6.50;4.73;;;4.90;99.90;;;;;;5045908;28;20568;-55
2022/04/24 04:02:31;;;;;;;5.80;4.67;;;4.90;99.90;;;;;;5045200;28;20549;-53
2022/04/24 04:04:58;;;;;;;5.10;4.60;;;4.90;99.90;;;;;;5043697;28;20553;-53
2022/04/24 04:07:24;;;;;;;5.87;4.07;;;4.90;99.90;;;;;;5045325;28;21201;-53
2022/04/24 04:09:51;;;;;;;6.03;4.83;;;5.00;99.90;;;;;;5046795;28;20571;-53
2022/04/24 04:12:19;;;;;;;5.23;4.73;;;5.00;99.90;;;;;;5044326;28;20547;-53
2022/04/24 04:14:45;;;;;;;6.90;4.50;;;5.10;99.90;;;;;;5045192;28;20548;-53
2022/04/24 04:17:12;;;;;;;5.53;4.57;;;5.10;99.90;;;;;;5044873;28;20593;-52
2022/04/24 04:19:39;;;;;;;7.50;4.50;;;5.10;99.90;;;;;;5045618;28;20478;-52
2022/04/24 04:22:05;;;;;;;8.20;5.10;;;5.20;99.90;;;;;;5043872;28;20462;-53
2022/04/24 04:24:32;;;;;;;7.73;4.73;;;5.20;99.90;;;;;;5045912;28;20461;-53
2022/04/24 04:26:58;;;;;;;5.13;4.50;;;5.20;99.90;;;;;;5045303;28;20480;-53
2022/04/24 04:29:26;;;;;;;6.73;4.77;;;5.20;99.90;;;;;;5045017;28;20548;-53
2022/04/24 04:31:53;;;;;;;6.13;4.67;;;5.20;99.90;;;;;;5044318;28;20556;-52
2022/04/24 04:34:19;;;;;;;6.97;4.63;;;5.30;99.90;;;;;;5045870;28;20573;-52
2022/04/24 04:36:46;;;;;;;6.60;4.60;;;5.20;99.90;;;;;;5043447;28;20594;-53
2022/04/24 04:39:12;;;;;;;9.50;4.43;;;5.20;99.90;;;;;;5043655;28;20490;-53
2022/04/24 04:41:40;;;;;;;5.87;4.30;;;5.30;99.90;;;;;;5045895;28;20473;-53
2022/04/24 04:44:06;;;;;;;8.13;5.07;;;5.30;99.90;;;;;;5044348;28;20457;-52
2022/04/24 04:46:34;;;;;;;8.80;4.60;;;5.40;99.90;;;;;;5046364;28;20561;-52
2022/04/24 04:49:01;;;;;;;7.17;5.43;;;5.40;99.90;;;;;;5044151;28;21223;-54
2022/04/24 04:51:27;;;;;;;10.00;5.77;;;5.50;99.90;;;;;;5045366;28;20544;-53
2022/04/24 04:53:55;;;;;;;12.17;6.40;;;5.50;99.90;;;;;;5044436;28;20580;-53
2022/04/24 04:56:22;;;;;;;7.33;6.10;;;5.60;99.90;;;;;;5044458;28;20608;-53
2022/04/24 04:58:49;;;;;;;6.90;4.93;;;5.70;99.90;;;;;;5044636;28;20486;-53
2022/04/24 05:01:15;;;;;;;8.23;5.50;;;5.70;99.90;;;;;;5044188;28;20577;-53
2022/04/24 05:03:43;;;;;;;7.23;4.80;;;5.80;99.90;;;;;;5043763;28;21037;-52
2022/04/24 05:06:10;;;;;;;8.90;5.50;;;5.80;99.90;;;;;;5045289;28;20482;-53
2022/04/24 05:08:36;;;;;;;12.73;5.10;;;5.80;99.90;;;;;;5043776;28;21112;-52
2022/04/24 05:11:03;;;;;;;5.80;4.70;;;5.80;99.90;;;;;;5042870;28;20588;-52
2022/04/24 05:13:30;;;;;;;7.77;4.63;;;5.90;99.90;;;;;;5043664;28;20562;-52
2022/04/24 05:15:56;;;;;;;6.40;4.80;;;5.90;99.90;;;;;;5044896;28;20517;-53
2022/04/24 05:18:23;;;;;;;10.40;5.10;;;6.00;99.90;;;;;;5044795;28;20548;-53
2022/04/24 05:20:51;;;;;;;8.33;5.07;;;6.10;99.90;;;;;;5044283;28;20600;-52
2022/04/24 05:23:17;;;;;;;8.67;5.90;;;6.30;99.90;;;;;;5044361;28;20466;-52
2022/04/24 05:25:44;;;;;;;9.17;5.27;;;6.40;99.90;;;;;;5045429;28;20536;-52
2022/04/24 05:28:10;;;;;;;9.17;5.27;;;6.60;99.90;;;;;;5045619;28;20581;-52
2022/04/24 05:30:37;;;;;;;9.33;5.83;;;6.60;99.90;;;;;;5044048;28;21048;-54
2022/04/24 05:33:04;;;;;;;9.40;5.50;;;6.70;99.90;;;;;;5045179;28;20496;-53
2022/04/24 05:35:30;;;;;;;11.00;6.07;;;6.80;99.90;;;;;;5043897;28;20458;-54
2022/04/24 05:37:58;;;;;;;5.30;4.80;;;6.90;99.90;;;;;;5046362;28;20539;-52
2022/04/24 05:40:25;;;;;;;6.73;5.20;;;7.00;99.90;;;;;;5044722;28;20572;-52
2022/04/24 05:42:54;;;;;;;6.27;5.67;;;7.10;99.90;;;;;;5044887;28;20919;-52
2022/04/24 05:45:22;;;;;;;13.27;6.37;;;7.20;99.90;;;;;;5041301;28;20539;-52
2022/04/24 05:47:49;;;;;;;12.00;5.70;;;7.20;99.90;;;;;;5045492;28;21144;-52
2022/04/24 05:50:15;;;;;;;7.97;6.17;;;7.20;99.90;;;;;;5050680;28;20508;-52
2022/04/24 05:52:43;;;;;;;6.47;5.73;;;7.30;99.90;;;;;;5047886;28;20493;-52
2022/04/24 05:55:11;;;;;;;7.40;6.10;;;7.40;99.90;;;;;;5048047;28;20556;-52
2022/04/24 05:57:38;;;;;;;9.20;5.87;;;7.50;99.90;;;;;;5047847;28;20486;-52
2022/04/24 06:00:06;;;;;;;12.90;6.00;;;7.50;99.90;;;;;;5050868;28;20573;-53
2022/04/24 06:02:33;;;;;;;7.77;5.57;;;7.60;99.90;;;;;;5048399;28;20489;-52
2022/04/24 06:04:59;;;;;;;9.97;6.17;;;7.70;99.90;;;;;;5052004;28;20536;-53
2022/04/24 06:07:26;;;;;;;7.70;5.77;;;7.70;99.90;;;;;;5048753;28;20473;-52
2022/04/24 06:09:53;;;;;;;8.50;7.40;;;7.90;99.90;;;;;;5065836;28;20540;-52
2022/04/24 06:12:20;;;;;;;9.70;5.83;;;7.90;99.90;;;;;;5049236;28;20548;-53
2022/04/24 06:14:47;;;;;;;7.90;6.07;;;8.00;99.90;;;;;;5047176;28;21029;-53
2022/04/24 06:17:13;;;;;;;7.30;6.10;;;8.10;99.90;;;;;;5048759;28;20556;-53
2022/04/24 06:19:40;;;;;;;6.40;5.40;;;8.20;99.90;;;;;;5046586;28;20584;-53
2022/04/24 06:22:07;;;;;;;7.53;6.10;;;8.30;99.90;;;;;;5046589;28;20561;-52
2022/04/24 06:24:33;;;;;;;7.07;5.80;;;8.40;99.90;;;;;;5057135;28;20545;-52
2022/04/24 06:27:00;;;;;;;8.00;6.63;;;8.50;99.90;;;;;;5062133;28;20466;-54
2022/04/24 06:29:28;;;;;;;10.33;6.70;;;8.50;24.10;;;;;;5055402;28;20927;-54
2022/04/24 06:31:54;;;;;;;8.90;7.13;;;8.60;25.30;;;;;;5046908;28;20561;-52
2022/04/24 06:34:21;;;;;;;9.60;6.33;;;8.70;26.50;;;;;;5045594;28;20462;-54
2022/04/24 06:36:47;;;;;;;10.07;6.10;;;8.80;34.70;;;;;;5047202;28;20597;-53
2022/04/24 06:39:14;;;;;;;12.40;6.90;;;9.00;38.50;;;;;;5047189;28;20556;-52
2022/04/24 06:41:41;;;;;;;7.60;6.53;;;9.10;41.40;;;;;;5056320;28;20973;-53
2022/04/24 06:44:08;;;;;;;11.50;6.40;;;9.10;43.50;;;;;;5052534;28;20461;-52
2022/04/24 06:46:35;;;;;;;10.13;6.37;;;9.50;46.60;;;;;;5046409;28;20493;-53
2022/04/24 06:49:02;;;;;;;8.90;6.50;;;9.70;71.70;;;;;;5044633;28;20540;-53
2022/04/24 06:51:28;;;;;;;8.50;6.77;;;9.80;74.80;;;;;;5047406;28;20545;-53
2022/04/24 06:53:55;;;;;;;8.30;6.03;;;9.50;67.30;;;;;;5045228;28;20556;-53
2022/04/24 06:56:22;;;;;;;14.10;7.07;;;9.80;68.30;;;;;;5048708;28;20560;-53
2022/04/24 06:58:48;;;;;;;7.83;6.70;;;10.00;75.60;;;;;;5051759;28;20496;-53
2022/04/24 07:01:15;;;;;;;9.33;5.90;;;10.20;80.50;;;;;;5055845;28;20478;-53
2022/04/24 07:03:42;;;;;;;11.00;6.93;;;10.30;81.70;;;;;;5053811;28;20918;-53
2022/04/24 07:06:09;;;;;;;7.80;6.03;;;10.20;84.70;;;;;;5048760;28;20553;-53
2022/04/24 07:08:36;;;;;;;9.37;7.27;;;10.30;80.80;;;;;;5048297;28;20877;-53
2022/04/24 07:11:02;;;;;;;7.07;6.27;;;10.50;81.30;;;;;;5055574;28;20531;-54
2022/04/24 07:13:29;;;;;;;11.60;6.53;;;11.00;87.30;;;;;;5049710;28;20553;-53
2022/04/24 07:15:55;;;;;;;10.90;7.03;;;11.70;99.90;;;;;;5045409;28;20493;-52
2022/04/24 07:18:22;;;;;;;7.90;6.20;;;11.80;99.90;;;;;;5057291;28;20572;-52
2022/04/24 07:20:52;;;;;;;8.10;6.70;;;11.60;99.90;;;;;;5052059;28;20513;-53
2022/04/24 07:23:19;;;;;;;9.80;6.60;;;11.10;99.90;;;;;;5051245;28;20490;-52
2022/04/24 07:25:46;;;;;;;11.03;7.03;;;11.30;99.90;;;;;;5052468;28;20966;-53
2022/04/24 07:28:13;;;;;;;9.67;6.00;;;11.70;99.90;;;;;;5043683;28;20542;-53
2022/04/24 07:30:40;;;;;;;9.30;5.80;;;11.90;99.90;;;;;;5046645;28;20565;-54
2022/04/24 07:33:07;;;;;;;9.20;6.40;;;11.70;99.90;;;;;;5041951;28;21044;-53
2022/04/24 07:35:35;;;;;;;10.70;6.60;;;11.70;99.90;;;;;;5035236;28;20494;-53
2022/04/24 07:38:03;;;;;;;11.60;6.93;;;11.40;99.90;;;;;;5046547;28;20904;-54
2022/04/24 07:40:32;;;;;;;14.43;5.70;;;11.50;99.90;;;;;;5044278;28;20567;-53
2022/04/24 07:42:59;;;;;;;12.30;5.53;;;12.00;99.90;;;;;;5044819;28;20921;-53
2022/04/24 07:45:29;;;;;;;9.80;6.33;;;12.50;99.90;;;;;;5044376;28;20977;-53
2022/04/24 07:47:57;;;;;;;9.20;6.13;;;12.50;99.90;;;;;;5044274;28;20569;-51
2022/04/24 07:50:25;;;;;;;19.70;5.43;;;12.50;99.90;;;;;;5045005;28;20513;-53
2022/04/24 07:52:52;;;;;;;9.27;6.27;;;12.50;99.90;;;;;;5044905;28;20531;-52
2022/04/24 07:55:22;;;;;;;8.70;6.33;;;13.00;99.90;;;;;;5044840;28;20992;-53
2022/04/24 07:57:49;;;;;;;7.93;5.90;;;13.40;99.90;;;;;;5043777;28;20478;-53
2022/04/24 08:00:17;;;;;;;7.30;5.83;;;13.00;99.90;;;;;;5036518;28;21566;-53
2022/04/24 08:02:48;;;;;;;7.27;6.03;;;13.10;99.90;;;;;;5044299;28;20545;-53
2022/04/24 08:05:19;;;;;;;9.23;6.10;;;13.20;99.90;;;;;;5042093;28;20553;-52
2022/04/24 08:07:46;;;;;;;9.90;6.53;;;13.50;99.90;;;;;;5041645;28;20569;-53
2022/04/24 08:10:13;;;;;;;8.07;6.53;;;13.70;99.90;;;;;;5042392;28;20576;-53
2022/04/24 08:12:40;;;;;;;11.33;5.97;;;14.00;99.90;;;;;;5041066;28;20557;-52
2022/04/24 08:15:08;;;;;;;9.77;5.63;;;14.40;99.90;;;;;;5037788;28;20576;-51
2022/04/24 08:17:34;;;;;;;6.70;5.63;;;14.60;99.90;;;;;;5040889;28;21076;-52
2022/04/24 08:20:01;;;;;;;9.27;7.00;;;14.70;99.90;;;;;;5040865;28;20601;-52
2022/04/24 08:22:37;;;;;;;9.43;6.40;;;15.00;99.90;;;;;;5044473;28;20474;-54
2022/04/24 08:25:04;;;;;;;10.30;7.17;;;14.50;99.90;;;;;;5044679;28;20547;-52
2022/04/24 08:27:30;;;;;;;7.73;5.60;;;14.60;99.90;;;;;;5043966;28;20882;-52
2022/04/24 08:29:58;;;;;;;27.67;5.50;;;14.40;99.90;;;;;;5041130;28;20670;-53
2022/04/24 08:32:25;;;;;;;7.63;5.50;;;13.80;99.90;;;;;;5043244;28;20465;-52
2022/04/24 08:34:51;;;;;;;7.23;5.43;;;14.20;99.90;;;;;;5044588;28;20464;-53
2022/04/24 08:37:18;;;;;;;5.40;4.87;;;14.70;1.40;;;;;;5040064;28;20607;-53
2022/04/24 08:39:44;;;;;;;6.03;5.50;;;14.30;99.90;;;;;;5046034;28;21036;-53
2022/04/24 08:42:11;;;;;;;5.67;5.13;;;14.90;1.40;;;;;;5044430;28;20545;-53
2022/04/24 08:44:38;;;;;;;7.77;4.83;;;15.80;99.90;;;;;;5043038;28;20588;-53
2022/04/24 08:47:07;;;;;;;7.63;4.87;;;16.20;99.90;;;;;;5038779;28;20584;-52
2022/04/24 08:49:35;;;;;;;8.50;5.40;;;16.90;99.90;;;;;;5059363;22;20580;-49
2022/04/24 08:52:02;;;;;;;7.03;5.07;;;17.60;99.90;;;;;;5047078;28;20907;-50
2022/04/24 08:54:29;;;;;;;6.90;5.67;;;17.70;99.90;;;;;;5046058;28;20458;-50
2022/04/24 08:56:58;;;;;;;5.70;5.20;;;18.50;99.90;;;;;;5043705;28;20485;-50
2022/04/24 08:59:24;;;;;;;8.70;6.70;;;17.90;99.90;;;;;;5043275;28;20477;-51
2022/04/24 09:01:51;;;;;;;7.43;5.00;;;18.20;99.90;;;;;;5043358;28;20516;-49
2022/04/24 09:04:20;;;;;;;6.20;5.20;;;18.30;99.90;;;;;;5041098;28;20984;-50
2022/04/24 09:06:55;;;;;;;8.07;5.23;;;17.70;99.90;;;;;;5046705;28;20546;-50
2022/04/24 09:09:22;;;;;;;10.60;6.10;;;18.10;99.90;;;;;;5044801;28;20480;-51
2022/04/24 09:11:48;;;;;;;7.20;5.10;;;17.60;99.90;;;;;;5041211;28;20893;-52
2022/04/24 09:14:19;;;;;;;8.00;5.13;;;17.50;99.90;;;;;;5045541;28;20485;-51
2022/04/24 09:16:49;;;;;;;6.30;5.27;;;16.70;99.90;;;;;;5050111;28;20472;-50
2022/04/24 09:19:21;;;;;;;9.13;5.50;;;16.60;99.90;;;;;;5048274;28;20531;-50
2022/04/24 09:21:47;;;;;;;5.73;4.80;;;16.80;99.90;;;;;;5042560;28;20673;-50
2022/04/24 09:24:14;;;;;;;8.80;4.50;;;16.70;99.90;;;;;;5044432;28;20500;-52
2022/04/24 09:26:50;;;;;;;11.47;5.47;;;17.00;99.90;;;;;;5056972;28;20989;-51
2022/04/24 09:29:16;;;;;;;6.87;4.93;;;17.50;99.90;;;;;;5045898;28;20496;-50
2022/04/24 09:31:47;;;;;;;6.57;5.30;;;18.60;99.90;;;;;;5041322;28;20552;-51
2022/04/24 09:34:15;;;;;;;12.40;5.63;;;18.20;99.90;;;;;;5045291;28;20497;-51
2022/04/24 09:36:43;;;;;;;6.53;5.77;;;17.80;99.90;;;;;;5044218;28;20552;-50
2022/04/24 09:39:09;;;;;;;14.23;5.33;;;17.50;99.90;;;;;;5045176;28;21091;-50
2022/04/24 09:41:37;;;;;;;9.20;5.07;;;17.60;99.90;;;;;;5043460;28;20457;-50
2022/04/24 09:44:13;;;;;;;5.63;4.67;;;18.50;99.90;;;;;;5043110;28;20523;-50
2022/04/24 09:46:39;;;;;;;4.77;4.27;;;19.50;99.90;;;;;;5045706;28;20476;-50
2022/04/24 09:49:09;;;;;;;7.33;4.20;;;20.00;99.90;;;;;;5040968;28;20571;-51
2022/04/24 09:51:40;;;;;;;8.83;5.03;;;20.30;99.90;;;;;;5043447;28;20553;-50
2022/04/24 09:54:08;;;;;;;7.00;5.90;;;20.10;99.90;;;;;;5043646;28;20454;-51
2022/04/24 09:56:36;;;;;;;6.53;4.77;;;20.90;99.90;;;;;;5047826;28;20497;-51
2022/04/24 09:59:02;;;;;;;6.77;5.20;;;21.20;99.90;;;;;;5052663;28;20497;-50
2022/04/24 10:01:29;;;;;;;7.03;5.60;;;20.80;99.90;;;;;;5047498;28;20508;-50
2022/04/24 10:03:57;;;;;;;7.10;6.07;;;20.40;99.90;;;;;;5041966;28;20463;-50
2022/04/24 10:06:24;;;;;;;8.03;5.40;;;20.40;99.90;;;;;;5043386;28;20458;-50
2022/04/24 10:08:51;;;;;;;6.20;5.40;;;20.60;99.90;;;;;;5052060;28;20474;-50
2022/04/24 10:11:20;;;;;;;6.07;5.50;;;19.80;99.90;;;;;;5050504;28;20988;-51
2022/04/24 10:13:49;;;;;;;5.80;4.60;;;20.40;99.90;;;;;;5050449;28;20462;-50
2022/04/24 10:16:30;;;;;;;9.17;5.90;;;19.60;99.90;;;;;;5051465;28;20528;-52
2022/04/24 10:19:05;;;;;;;7.33;4.93;;;19.80;99.90;;;;;;5046307;28;20600;-51
2022/04/24 10:21:52;;;;;;;5.67;5.20;;;19.30;99.90;;;;;;5047271;28;20935;-52
2022/04/24 10:24:19;;;;;;;8.77;5.10;;;19.60;99.90;;;;;;5050343;28;20469;-50
2022/04/24 10:26:57;;;;;;;5.63;5.10;;;20.10;99.90;;;;;;5042382;28;21004;-50
2022/04/24 10:29:24;;;;;;;5.00;4.20;;;20.70;99.90;;;;;;5041068;28;20862;-50
2022/04/24 10:31:52;;;;;;;5.00;4.60;;;20.20;99.90;;;;;;5045296;28;20454;-51
2022/04/24 10:34:19;;;;;;;6.10;5.20;;;19.80;99.90;;;;;;5044920;28;20450;-50
2022/04/24 10:36:57;;;;;;;6.20;4.93;;;20.00;99.90;;;;;;5048854;28;20457;-51
2022/04/24 10:39:26;;;;;;;4.90;4.50;;;19.80;99.90;;;;;;5057099;28;20917;-50
2022/04/24 10:41:59;;;;;;;7.07;4.60;;;20.50;99.90;;;;;;5047764;28;20458;-51
2022/04/24 10:44:26;;;;;;;5.67;5.27;;;20.90;99.90;;;;;;5033619;28;20442;-51
2022/04/24 10:46:57;;;;;;;9.07;4.50;;;20.80;99.90;;;;;;5044912;28;20462;-51
2022/04/24 10:49:25;;;;;;;3.90;3.60;;;20.10;99.90;;;;;;5052931;28;20478;-51
2022/04/24 10:51:59;;;;;;;4.30;3.90;;;19.60;99.90;;;;;;5044573;28;20499;-51
2022/04/24 10:54:34;;;;;;;7.60;4.03;;;19.80;99.90;;;;;;5055956;28;20510;-51
2022/04/24 10:57:14;;;;;;;6.30;4.20;;;18.90;99.90;;;;;;5044578;28;20476;-50
2022/04/24 10:59:45;;;;;;;4.70;3.87;;;18.70;99.90;;;;;;5046953;28;20900;-50
2022/04/24 11:02:12;;;;;;;5.60;4.20;;;18.20;99.90;;;;;;5045286;28;20533;-51
2022/04/24 11:04:41;;;;;;;4.20;3.90;;;18.20;99.90;;;;;;5045492;28;20466;-50
2022/04/24 11:07:07;;;;;;;4.80;3.80;;;17.70;99.90;;;;;;5047087;28;20490;-51
2022/04/24 11:09:36;;;;;;;4.23;3.93;;;18.30;99.90;;;;;;5050666;28;20501;-51
2022/04/24 11:12:06;;;;;;;5.60;4.10;;;17.70;99.90;;;;;;5051570;28;20465;-51
2022/04/24 11:14:34;;;;;;;5.90;4.77;;;17.40;99.90;;;;;;5050718;28;20458;-51
2022/04/24 11:17:02;;;;;;;6.30;4.23;;;17.60;99.90;;;;;;5050882;28;20464;-51
2022/04/24 11:19:30;;;;;;;5.57;4.10;;;18.20;99.90;;;;;;5056034;28;20482;-51
2022/04/24 11:21:57;;;;;;;7.10;5.33;;;18.00;99.90;;;;;;5050845;28;20460;-51
2022/04/24 11:24:25;;;;;;;10.30;4.97;;;17.90;99.90;;;;;;5055075;28;20596;-52
2022/04/24 11:26:52;;;;;;;10.53;5.67;;;17.60;99.90;;;;;;5049095;28;20984;-51
2022/04/24 11:29:21;;;;;;;9.17;5.30;;;17.20;99.90;;;;;;5053196;28;21043;-51
2022/04/24 11:31:48;;;;;;;11.97;4.77;;;17.00;99.90;;;;;;5043967;28;20557;-50
2022/04/24 11:34:17;;;;;;;7.60;5.40;;;16.60;99.90;;;;;;5048834;28;20831;-51
2022/04/24 11:36:44;;;;;;;10.30;4.50;;;16.60;99.90;;;;;;5051763;28;20454;-51
2022/04/24 11:39:11;;;;;;;5.20;4.60;;;16.80;99.90;;;;;;5054764;28;20489;-51
2022/04/24 11:41:38;;;;;;;3.90;3.60;;;16.90;99.90;;;;;;5046330;28;20500;-50
2022/04/24 11:50:13;;;;;;;3.93;3.60;;;16.90;99.90;;;;;;5046713;28;20458;-51
2022/04/24 11:52:24;;;;;;;10.47;4.90;;;16.60;99.90;;;;;;5046756;28;20875;-51
2022/04/24 11:54:52;;;;;;;12.20;5.87;;;16.60;99.90;;;;;;5043111;28;20486;-51
2022/04/24 11:57:19;;;;;;;11.97;7.00;;;16.80;99.90;;;;;;5047259;28;20462;-51
2022/04/24 11:59:52;;;;;;;4.67;3.47;;;17.10;99.90;;;;;;5044999;28;21097;-50
2022/04/24 12:02:23;;;;;;;8.47;5.17;;;17.10;99.90;;;;;;5050109;28;20466;-50
2022/04/24 12:04:50;;;;;;;4.97;3.77;;;17.50;99.90;;;;;;5045694;28;20503;-51
2022/04/24 12:07:17;;;;;;;4.40;3.47;;;17.50;99.90;;;;;;5047738;28;20489;-51
2022/04/24 12:09:44;;;;;;;4.57;3.83;;;18.40;99.90;;;;;;5057334;28;21003;-51
2022/04/24 12:12:12;;;;;;;3.50;3.20;;;18.40;99.90;;;;;;5050223;28;20489;-50
2022/04/24 12:14:40;;;;;;;5.57;3.30;;;18.30;99.90;;;;;;5047395;28;20457;-51
2022/04/24 12:17:09;;;;;;;3.20;3.00;;;18.20;99.90;;;;;;5052805;28;20493;-51
2022/04/24 12:19:40;;;;;;;5.33;3.33;;;17.70;99.90;;;;;;5048574;28;20486;-50
2022/04/24 12:22:09;;;;;;;5.83;3.83;;;17.50;99.90;;;;;;5049193;28;20985;-51
2022/04/24 12:24:43;;;;;;;5.33;4.67;;;17.30;99.90;;;;;;5048877;28;20489;-51
2022/04/24 12:27:12;;;;;;;3.77;3.47;;;17.40;99.90;;;;;;5045110;28;20484;-50
2022/04/24 12:29:40;;;;;;;5.03;3.60;;;18.50;99.90;;;;;;5041588;28;20509;-50
2022/04/24 12:32:11;;;;;;;3.40;3.10;;;17.90;99.90;;;;;;5042690;28;20457;-51
2022/04/24 12:34:40;;;;;;;3.00;2.90;;;17.50;99.90;;;;;;5042213;28;20463;-50
2022/04/24 12:37:07;;;;;;;7.30;3.77;;;17.70;99.90;;;;;;5050212;28;20518;-50
2022/04/24 12:39:34;;;;;;;4.43;3.60;;;18.20;99.90;;;;;;5051562;28;20582;-50
2022/04/24 12:42:11;;;;;;;5.87;3.60;;;18.80;99.90;;;;;;5049751;28;20493;-51
2022/04/24 12:44:38;;;;;;;5.60;3.00;;;19.20;99.90;;;;;;5041699;28;20490;-49
2022/04/24 12:47:05;;;;;;;3.60;3.40;;;19.80;99.90;;;;;;5048094;28;20483;-50
2022/04/24 12:49:32;;;;;;;4.23;2.90;;;20.10;99.90;;;;;;5047834;28;20548;-51
2022/04/24 12:52:00;;;;;;;3.43;3.17;;;20.30;99.90;;;;;;5051934;28;20457;-51
2022/04/24 12:54:27;;;;;;;7.10;2.93;;;19.60;99.90;;;;;;5046254;28;20884;-51
2022/04/24 12:56:54;;;;;;;3.13;2.93;;;19.30;99.90;;;;;;5047015;28;21015;-51
2022/04/24 12:59:20;;;;;;;3.17;2.90;;;19.50;99.90;;;;;;5050919;28;20498;-51